Latest Weather Observations for Canterbury

IDN60801

Issued at 1:04 pm EST Friday 26 August 2016 (issued every 30 minutes, with the page automatically refreshed every 10 minutes)

About weather observations | Map of weather stations | Latest weather observations for NSW | Other Formats
Station Details ID: 066194 Name: CANTERBURY RACECOURSE AWS Lat: -33.91 Lon: 151.11 Height: 3.0 m
Data from the previous 72 hours. | See also: Recent months at Canterbury
Date/Time
EST
Temp
°C
App
Temp
°C
Dew
Point
°C
Rel
Hum
%
Delta-T
°C
Wind Press
QNH
hPa
Press
MSL
hPa
Rain since
9am
mm
Dir  Spd
km/h
Gust
km/h
Spd
kts
Gust
kts
26/01:00pm 14.8 10.2 3.6 47 5.1 SSW 17 30 9 16 - - 0.0
26/12:30pm 15.0 10.4 3.8 47 5.1 S 17 26 9 14 - - 0.0
26/12:00pm 14.3 9.7 3.5 48 4.9 S 17 28 9 15 - - 0.0
26/11:30am 13.7 9.9 3.8 51 4.5 SSW 13 24 7 13 - - 0.0
26/11:00am 13.8 9.0 4.4 53 4.3 S 19 30 10 16 - - 0.0
26/10:30am 14.2 10.3 5.3 55 4.2 WSW 15 22 8 12 - - 0.0
26/10:00am 12.8 9.4 4.0 55 4.0 WSW 11 17 6 9 - - 0.0
26/09:30am 12.0 8.2 4.0 58 3.6 WSW 13 22 7 12 - - 0.0
26/09:00am 10.1 4.9 2.2 58 3.3 SW 19 28 10 15 - - 0.0
26/08:30am 9.3 4.6 2.9 64 2.7 WSW 17 28 9 15 - - 0.0
26/08:00am 8.6 3.8 2.6 66 2.5 SW 17 26 9 14 - - 0.0
26/07:30am 7.4 2.7 3.1 74 1.8 WSW 17 26 9 14 - - 0.0
26/07:00am 6.3 3.1 2.9 79 1.4 WSW 9 13 5 7 - - 0.0
26/06:30am 6.4 2.8 3.0 79 1.4 WSW 11 17 6 9 - - 0.0
26/06:00am 6.1 2.9 3.3 82 1.2 WSW 9 13 5 7 - - 0.0
26/05:30am 5.4 2.5 2.8 83 1.1 W 7 11 4 6 - - 0.0
26/05:00am 6.3 3.4 2.8 78 1.4 WSW 7 11 4 6 - - 0.0
26/04:30am 6.6 3.3 2.7 76 1.6 WSW 9 13 5 7 - - 0.0
26/04:00am 7.0 3.7 2.7 74 1.8 WSW 9 17 5 9 - - 0.0
26/03:30am 6.7 3.8 2.6 75 1.7 W 7 11 4 6 - - 0.0
26/03:00am 6.8 3.5 2.5 74 1.8 WSW 9 13 5 7 - - 0.0
26/02:30am 7.4 4.4 2.3 70 2.1 W 7 13 4 7 - - 0.0
26/02:00am 8.2 4.6 2.7 68 2.3 WSW 11 15 6 8 - - 0.0
26/01:30am 8.3 5.0 2.5 67 2.4 WSW 9 17 5 9 - - 0.0
26/01:00am 8.5 5.1 2.1 64 2.7 WSW 9 13 5 7 - - 0.0
26/12:30am 8.2 4.8 2.0 65 2.6 WSW 9 17 5 9 - - 0.0
26/12:00am 7.8 4.9 1.4 64 2.6 WSW 6 7 3 4 - - 0.0
 
Date/Time
EST
Temp
°C
App
Temp
°C
Dew
Point
°C
Rel
Hum
%
Delta-T
°C
Wind Press
QNH
hPa
Press
MSL
hPa
Rain since
9am
mm
Dir  Spd
km/h
Gust
km/h
Spd
kts
Gust
kts
25/11:30pm 9.4 6.3 1.6 58 3.2 WSW 7 11 4 6 - - 0.0
25/11:00pm 9.3 5.8 1.2 57 3.3 WSW 9 13 5 7 - - 0.0
25/10:30pm 10.2 6.3 1.3 54 3.7 WSW 11 20 6 11 - - 0.0
25/10:00pm 11.0 6.0 1.3 51 4.1 WSW 17 26 9 14 - - 0.0
25/09:30pm 11.0 6.9 2.3 55 3.7 WSW 13 22 7 12 - - 0.0
25/09:00pm 10.9 7.8 3.5 60 3.2 W 9 15 5 8 - - 0.0
25/08:30pm 10.3 8.5 7.2 81 1.5 SE 6 13 3 7 - - 0.0
25/08:00pm 9.1 8.3 6.5 84 1.2 CALM 0 0 0 0 - - 0.0
25/07:30pm 10.0 9.3 6.9 81 1.5 CALM 0 0 0 0 - - 0.0
25/07:00pm 10.9 10.0 6.1 72 2.2 CALM 0 0 0 0 - - 0.0
25/06:30pm 12.4 11.5 6.2 66 2.9 CALM 0 0 0 0 - - 0.0
25/06:00pm 14.0 11.9 5.9 58 3.8 SE 6 9 3 5 - - 0.0
25/05:30pm 14.0 11.7 5.6 57 4.0 SE 7 11 4 6 - - 0.0
25/05:00pm 14.5 11.1 6.1 57 4.0 SE 13 19 7 10 - - 0.0
25/04:30pm 14.3 10.1 5.9 57 4.0 SE 17 24 9 13 - - 0.0
25/04:00pm 14.5 10.7 5.8 56 4.1 SE 15 22 8 12 - - 0.0
25/03:30pm 15.2 11.7 5.4 52 4.6 SSE 13 24 7 13 - - 0.0
25/03:00pm 15.8 12.5 4.8 48 5.2 SSE 11 19 6 10 - - 0.0
25/02:30pm 16.2 11.8 2.9 41 6.0 WSW 15 26 8 14 - - 0.0
25/02:00pm 16.1 11.5 3.9 44 5.6 WSW 17 26 9 14 - - 0.0
25/01:30pm 15.3 10.6 3.1 44 5.5 SW 17 24 9 13 - - 0.0
25/01:00pm 15.8 11.1 5.1 49 5.1 WSW 19 28 10 15 - - 0.0
25/12:30pm 16.1 11.2 5.1 48 5.2 SW 20 30 11 16 - - 0.0
25/12:00pm 14.8 8.8 3.6 47 5.1 SW 24 39 13 21 - - 0.0
25/11:30am 14.5 9.4 3.9 49 4.8 SW 20 33 11 18 - - 0.0
25/11:00am 14.3 7.7 4.3 51 4.6 SW 28 39 15 21 - - 0.0
25/10:30am 13.8 9.0 5.7 58 3.8 SW 20 32 11 17 - - 0.0
25/10:00am 12.3 9.1 6.8 69 2.6 SW 13 20 7 11 - - 0.0
25/09:30am 11.1 7.1 6.8 75 2.0 WSW 17 28 9 15 - - 0.0
25/09:00am 11.5 7.2 6.8 73 2.2 WSW 19 28 10 15 - - 59.8
25/08:30am 11.2 6.7 6.3 72 2.3 WSW 19 32 10 17 - - 59.8
25/08:00am 9.9 6.2 6.1 77 1.8 WSW 15 26 8 14 - - 59.8
25/07:30am 9.1 6.2 6.4 83 1.2 WSW 11 19 6 10 - - 59.8
25/07:00am 9.0 5.7 6.4 84 1.2 W 13 24 7 13 - - 59.6
25/06:30am 9.1 6.1 6.0 81 1.4 W 11 17 6 9 - - 59.6
25/06:00am 9.0 6.0 6.1 82 1.3 W 11 19 6 10 - - 59.6
25/05:30am 9.1 5.8 6.4 83 1.2 WSW 13 20 7 11 - - 59.6
25/05:00am 9.1 5.8 6.5 84 1.2 WSW 13 20 7 11 - - 59.6
25/04:30am 9.1 5.9 6.9 86 1.0 WSW 13 19 7 10 - - 59.6
25/04:00am 9.1 6.0 7.1 87 0.9 WSW 13 20 7 11 - - 59.6
25/03:30am 9.1 6.1 7.7 91 0.7 WSW 13 20 7 11 - - 59.6
25/03:00am 9.1 6.2 8.0 93 0.5 WSW 13 19 7 10 - - 59.6
25/02:30am 9.1 5.8 8.0 93 0.5 WSW 15 22 8 12 - - 59.6
25/02:00am 9.0 5.7 8.2 95 0.4 WSW 15 22 8 12 - - 59.6
25/01:30am 8.9 6.0 8.3 96 0.3 WSW 13 17 7 9 - - 59.6
25/01:00am 9.1 6.4 8.8 98 0.1 WSW 13 24 7 13 - - 59.6
25/12:36am 9.4 7.1 8.9 97 0.2 WSW 11 17 6 9 - - 59.6
25/12:30am 9.4 7.1 8.9 97 0.2 SW 11 15 6 8 - - 59.6
25/12:00am 9.7 7.0 8.9 95 0.4 SSW 13 22 7 12 - - 58.6
 
Date/Time
EST
Temp
°C
App
Temp
°C
Dew
Point
°C
Rel
Hum
%
Delta-T
°C
Wind Press
QNH
hPa
Press
MSL
hPa
Rain since
9am
mm
Dir  Spd
km/h
Gust
km/h
Spd
kts
Gust
kts
24/11:51pm 9.5 6.8 8.9 96 0.3 SW 13 22 7 12 - - 58.4
24/11:49pm 9.5 6.8 8.9 96 0.3 SW 13 20 7 11 - - 58.4
24/11:30pm 9.2 5.7 8.7 97 0.2 SW 17 26 9 14 - - 58.2
24/11:19pm 9.1 5.5 8.5 96 0.3 SW 17 24 9 13 - - 57.6
24/11:00pm 9.1 5.6 8.6 97 0.2 WSW 17 30 9 16 - - 57.6
24/10:41pm 9.2 5.1 8.6 96 0.3 SW 20 35 11 19 - - 57.6
24/10:30pm 9.3 5.4 8.8 97 0.2 SW 19 32 10 17 - - 57.6
24/10:00pm 9.8 6.5 9.5 98 0.1 WSW 17 26 9 14 - - 57.0
24/09:30pm 10.1 6.9 9.8 98 0.2 WSW 17 24 9 13 - - 55.6
24/09:00pm 10.7 8.0 10.2 97 0.3 SW 15 26 8 14 - - 54.2
24/08:30pm 10.7 8.0 10.5 99 0.1 SSW 15 28 8 15 - - 53.4
24/08:00pm 11.4 8.6 11.2 99 0.1 SSW 17 30 9 16 - - 50.0
24/07:30pm 12.0 9.3 11.8 99 0.1 SSW 17 24 9 13 - - 43.0
24/07:00pm 12.4 8.5 12.2 99 0.1 SE 24 41 13 22 - - 41.8
24/06:30pm 11.9 10.7 11.7 99 0.1 SSW 9 15 5 8 - - 40.4
24/06:00pm 12.6 11.2 12.3 98 0.2 W 11 20 6 11 - - 35.0
24/05:30pm 13.2 10.5 13.0 99 0.1 SE 19 30 10 16 - - 30.0
24/05:11pm 13.0 12.1 12.7 98 0.2 SE 9 13 5 7 - - 27.2
24/05:00pm 12.9 12.5 12.4 97 0.3 SSE 6 9 3 5 - - 26.4
24/04:50pm 12.9 12.0 12.6 98 0.2 ESE 9 13 5 7 - - 26.4
24/04:30pm 13.1 11.5 12.9 99 0.1 SE 13 19 7 10 - - 26.4
24/04:00pm 12.6 10.9 12.4 99 0.1 SSE 13 22 7 12 - - 26.0
24/03:30pm 12.7 10.3 12.5 99 0.1 SSE 17 26 9 14 - - 25.0
24/03:00pm 13.1 11.5 12.9 99 0.1 ESE 13 22 7 12 - - 22.8
24/02:30pm 13.1 11.9 12.8 98 0.2 ESE 11 17 6 9 - - 18.6
24/02:00pm 13.5 12.0 13.0 97 0.3 SE 13 19 7 10 - - 15.0
24/01:30pm 13.2 11.6 12.9 98 0.2 SE 13 19 7 10 - - 14.6
24/01:00pm 13.6 11.6 12.7 94 0.5 SE 15 22 8 12 - - 9.2
24/12:30pm 13.7 11.8 12.9 95 0.4 SE 15 24 8 13 - - 7.8
24/12:23pm 13.6 11.6 12.7 94 0.5 SSE 15 24 8 13 - - 7.8
24/12:15pm 13.4 12.2 12.9 97 0.3 S 11 15 6 8 - - 7.6
24/12:00pm 13.5 12.7 13.0 97 0.3 SSE 9 17 5 9 - - 7.6
24/11:34am 13.2 13.6 12.6 96 0.3 S 2 7 1 4 - - 6.6
24/11:33am 13.2 13.3 12.6 96 0.3 S 4 7 2 4 - - 6.6
24/11:30am 13.2 12.9 12.6 96 0.3 S 6 7 3 4 - - 6.4
24/11:00am 12.5 11.3 11.7 95 0.4 SSE 9 17 5 9 - - 5.2
24/10:30am 12.7 11.6 11.8 94 0.5 SSW 9 15 5 8 - - 2.6
24/10:00am 12.6 12.8 11.7 94 0.5 SSE 2 11 1 6 - - 1.2
24/09:30am 12.5 11.2 11.4 93 0.6 S 9 17 5 9 - - 0.0
24/09:13am 12.4 10.6 11.0 91 0.7 S 11 17 6 9 - - 0.0
24/09:00am 12.2 10.3 10.4 89 0.9 S 11 19 6 10 - - 5.4
24/08:41am 12.2 9.8 10.1 87 1.1 SSE 13 22 7 12 - - 5.4
24/08:30am 12.4 10.1 10.5 88 1.0 S 13 24 7 13 - - 5.4
24/08:27am 12.4 10.1 10.3 87 1.1 S 13 24 7 13 - - 5.4
24/08:00am 12.2 12.3 11.4 95 0.4 E 2 6 1 3 - - 5.4
24/07:30am 12.1 11.7 11.2 94 0.5 NW 4 9 2 5 - - 5.4
24/07:13am 12.2 10.9 11.1 93 0.6 SSW 9 17 5 9 - - 5.4
24/07:00am 12.3 10.2 11.0 92 0.7 ESE 13 20 7 11 - - 5.4
24/06:30am 12.0 12.1 11.4 96 0.3 NW 2 6 1 3 - - 5.0
24/06:00am 12.1 11.3 11.2 94 0.5 SSW 6 9 3 5 - - 4.6
24/05:55am 12.1 11.2 11.2 94 0.5 S 7 13 4 7 - - 4.6
24/05:52am 12.1 11.2 11.2 94 0.5 S 7 13 4 7 - - 4.4
24/05:33am 12.0 11.1 11.5 97 0.3 S 7 11 4 6 - - 4.4
24/05:30am 12.0 11.3 11.5 97 0.3 S 6 11 3 6 - - 4.4
24/05:02am 11.8 11.1 11.3 97 0.3 WNW 6 9 3 5 - - 4.2
24/05:00am 11.8 11.1 11.3 97 0.3 NW 6 9 3 5 - - 4.2
24/04:30am 11.9 11.5 11.0 94 0.5 SSE 4 9 2 5 - - 2.0
24/04:29am 11.9 11.5 11.0 94 0.5 SSE 4 9 2 5 - - 1.8
24/04:00am 11.9 10.9 11.0 94 0.5 S 7 13 4 7 - - 1.6
24/03:52am 11.9 11.0 10.8 93 0.6 SSW 6 9 3 5 - - 1.6
24/03:30am 12.0 11.1 10.7 92 0.7 SE 6 9 3 5 - - 1.4
24/03:23am 12.1 11.2 10.8 92 0.7 SSE 6 9 3 5 - - 1.4
24/03:00am 12.1 11.2 10.5 90 0.8 SSW 6 13 3 7 - - 1.2
24/02:30am 12.3 10.8 10.7 90 0.8 SW 9 15 5 8 - - 1.2
24/02:00am 12.4 11.0 11.0 91 0.7 S 9 15 5 8 - - 1.2
24/01:30am 12.4 11.2 11.5 94 0.5 SSE 9 20 5 11 - - 1.2
24/01:08am 12.3 11.1 11.5 95 0.4 SSE 9 13 5 7 - - 1.2
24/01:00am 12.3 10.7 11.5 95 0.4 SE 11 15 6 8 - - 1.2
24/12:30am 12.8 11.0 11.0 89 0.9 SSE 11 22 6 12 - - 0.0
24/12:24am 12.8 10.6 10.9 88 1.0 SE 13 22 7 12 - - 0.0
24/12:00am 13.0 11.5 10.5 85 1.3 S 9 19 5 10 - - 0.0
 
Date/Time
EST
Temp
°C
App
Temp
°C
Dew
Point
°C
Rel
Hum
%
Delta-T
°C
Wind Press
QNH
hPa
Press
MSL
hPa
Rain since
9am
mm
Dir  Spd
km/h
Gust
km/h
Spd
kts
Gust
kts
23/11:30pm 12.7 12.5 10.6 87 1.1 SSW 2 7 1 4 - - 0.0
23/11:00pm 12.9 10.2 10.3 84 1.3 SSE 15 26 8 14 - - 0.0
23/10:30pm 13.2 11.4 9.6 79 1.8 S 9 17 5 9 - - 0.0
23/10:00pm 13.3 11.2 9.7 79 1.8 S 11 19 6 10 - - 0.0
23/09:30pm 13.3 11.1 9.5 78 1.9 SSE 11 22 6 12 - - 0.0
23/09:00pm 13.4 10.8 9.5 77 2.0 SSE 13 19 7 10 - - 0.0
23/08:30pm 13.0 11.3 8.5 74 2.2 SSE 7 13 4 7 - - 0.0
23/08:00pm 13.4 11.7 7.6 68 2.8 SSE 6 9 3 5 - - 0.0
23/07:30pm 13.4 11.7 7.6 68 2.8 SSW 6 9 3 5 - - 0.0
23/07:00pm 13.6 11.8 7.8 68 2.9 SW 7 11 4 6 - - 0.0
23/06:30pm 13.7 11.3 7.2 65 3.2 SSW 9 13 5 7 - - 0.0
23/06:00pm 14.1 11.9 7.9 66 3.1 SSE 9 17 5 9 - - 0.0
23/05:30pm 14.3 12.0 7.6 64 3.3 S 9 15 5 8 - - 0.0
23/05:00pm 14.5 11.5 7.5 63 3.5 S 13 19 7 10 - - 0.0
23/04:30pm 14.7 11.2 7.3 61 3.6 S 15 26 8 14 - - 0.0
23/04:00pm 14.7 11.3 7.7 63 3.5 SSE 15 22 8 12 - - 0.0
23/03:30pm 14.9 10.6 7.2 60 3.8 S 19 30 10 16 - - 0.0
23/03:00pm 15.3 11.3 6.8 57 4.2 S 17 24 9 13 - - 0.0
23/02:30pm 15.1 10.5 6.7 57 4.1 S 20 32 11 17 - - 0.0
23/02:00pm 15.9 11.7 7.4 57 4.2 S 19 28 10 15 - - 0.0
23/01:30pm 16.2 11.7 6.9 54 4.6 SSE 20 28 11 15 - - 0.0

Other Formats:

Comma delimited format used in spreadsheet applications
http://www.bom.gov.au/fwo/IDN60801/IDN60801.94766.axf

JavaScript Object Notation format (JSON) in row-major order
http://www.bom.gov.au/fwo/IDN60801/IDN60801.94766.json